Time;durP1;ratioP1;P1;durP2;ratioP2;P2;SDS_P1;SDS_P2;PMS_P1;PMS_P2;Temp;Humidity;BMP_temperature;BMP_pressure;BME280_temperature;BME280_humidity;BME280_pressure;Samples;Min_cycle;Max_cycle;Signal;HPM_P1;HPM_P2
2023/01/04 00:00:46;;;;;;;15.63;8.45;;;;;;;;;;5074052;28;20037;-63
2023/01/04 00:03:11;;;;;;;15.43;8.60;;;;;;;;;;5074054;28;20184;-63
2023/01/04 00:05:37;;;;;;;14.93;7.88;;;;;;;;;;5073666;28;20050;-63
2023/01/04 00:08:03;;;;;;;15.57;8.43;;;;;;;;;;5073902;28;20052;-62
2023/01/04 00:10:28;;;;;;;14.70;8.32;;;;;;;;;;5073819;28;20384;-63
2023/01/04 00:12:54;;;;;;;14.45;8.02;;;;;;;;;;5073550;28;20036;-62
2023/01/04 00:15:19;;;;;;;17.40;8.85;;;;;;;;;;5073390;28;20043;-62
2023/01/04 00:17:45;;;;;;;16.02;8.10;;;;;;;;;;5074372;28;20482;-62
2023/01/04 00:20:10;;;;;;;14.20;7.95;;;;;;;;;;5074994;28;20420;-62
2023/01/04 00:22:36;;;;;;;13.23;7.55;;;;;;;;;;5075063;28;20025;-62
2023/01/04 00:25:02;;;;;;;16.88;9.32;;;;;;;;;;5074965;28;20415;-62
2023/01/04 00:27:27;;;;;;;12.48;8.10;;;;;;;;;;5074827;28;20025;-62
2023/01/04 00:29:53;;;;;;;17.38;8.60;;;;;;;;;;5074710;28;20058;-62
2023/01/04 00:32:18;;;;;;;15.85;8.38;;;;;;;;;;5075100;28;20039;-63
2023/01/04 00:34:44;;;;;;;13.95;7.68;;;;;;;;;;5074354;28;20025;-63
2023/01/04 00:37:09;;;;;;;13.52;8.15;;;;;;;;;;5074780;28;20052;-63
2023/01/04 00:39:35;;;;;;;14.68;8.20;;;;;;;;;;5074959;28;20032;-62
2023/01/04 00:42:06;;;;;;;11.32;7.68;;;;;;;;;;5074321;28;20047;-63
2023/01/04 00:44:33;;;;;;;14.50;8.43;;;;;;;;;;5074562;28;20082;-63
2023/01/04 00:47:00;;;;;;;14.90;8.73;;;;;;;;;;5074496;28;20028;-62
2023/01/04 00:49:27;;;;;;;14.82;8.15;;;;;;;;;;5074348;28;20086;-63
2023/01/04 00:51:53;;;;;;;13.30;7.50;;;;;;;;;;5074651;28;20021;-63
2023/01/04 00:54:19;;;;;;;13.25;7.05;;;;;;;;;;5074116;28;20028;-63
2023/01/04 00:56:45;;;;;;;14.18;8.05;;;;;;;;;;5074135;28;20025;-63
2023/01/04 00:59:16;;;;;;;13.25;8.05;;;;;;;;;;5074329;28;20032;-64
2023/01/04 01:01:43;;;;;;;13.43;7.43;;;;;;;;;;5073484;28;20063;-63
2023/01/04 01:04:11;;;;;;;13.10;7.50;;;;;;;;;;5073986;28;20028;-62
2023/01/04 01:06:37;;;;;;;14.90;8.43;;;;;;;;;;5074175;28;20069;-62
2023/01/04 01:09:03;;;;;;;15.68;8.75;;;;;;;;;;5074373;28;20028;-64
2023/01/04 01:11:29;;;;;;;15.10;7.72;;;;;;;;;;5073022;28;20027;-63
2023/01/04 01:13:56;;;;;;;14.07;8.10;;;;;;;;;;5072439;28;20075;-63
2023/01/04 01:16:23;;;;;;;12.48;7.55;;;;;;;;;;5072660;28;20341;-64
2023/01/04 01:18:48;;;;;;;12.50;7.57;;;;;;;;;;5072693;28;20013;-63
2023/01/04 01:21:17;;;;;;;12.75;7.90;;;;;;;;;;5072148;28;20024;-63
2023/01/04 01:23:43;;;;;;;13.45;7.35;;;;;;;;;;5071753;28;20035;-63
2023/01/04 01:26:12;;;;;;;12.95;7.30;;;;;;;;;;5071128;28;20059;-63
2023/01/04 01:28:38;;;;;;;12.00;7.60;;;;;;;;;;5052513;28;20414;-62
2023/01/04 01:31:10;;;;;;;12.73;7.63;;;;;;;;;;5070431;28;20017;-63
2023/01/04 01:33:37;;;;;;;14.48;8.15;;;;;;;;;;5069272;28;20027;-63
2023/01/04 01:36:03;;;;;;;13.80;7.38;;;;;;;;;;5070673;28;20028;-63
2023/01/04 01:38:29;;;;;;;13.57;7.75;;;;;;;;;;5070565;28;20021;-63
2023/01/04 01:40:55;;;;;;;12.13;7.88;;;;;;;;;;5070374;28;20074;-63
2023/01/04 01:43:42;;;;;;;12.35;7.60;;;;;;;;;;5071324;28;20143;-63
2023/01/04 01:46:08;;;;;;;12.70;6.80;;;;;;;;;;5073090;28;20096;-63
2023/01/04 01:48:33;;;;;;;16.38;9.02;;;;;;;;;;5072970;28;20044;-63
2023/01/04 01:51:02;;;;;;;11.43;6.80;;;;;;;;;;5072614;28;20083;-63
2023/01/04 01:53:30;;;;;;;13.77;7.95;;;;;;;;;;5072370;28;20032;-63
2023/01/04 01:55:57;;;;;;;13.40;6.97;;;;;;;;;;5072601;28;20032;-63
2023/01/04 01:58:30;;;;;;;11.93;8.13;;;;;;;;;;5073103;28;20025;-62
2023/01/04 02:00:57;;;;;;;12.73;7.50;;;;;;;;;;5073006;28;20032;-62
2023/01/04 02:03:30;;;;;;;12.93;7.13;;;;;;;;;;5072280;28;20017;-62
2023/01/04 02:06:00;;;;;;;12.45;7.72;;;;;;;;;;5073219;28;20345;-63
2023/01/04 02:08:26;;;;;;;12.90;7.40;;;;;;;;;;5073288;28;20035;-62
2023/01/04 02:10:52;;;;;;;13.55;7.85;;;;;;;;;;5072981;28;20074;-63
2023/01/04 02:13:22;;;;;;;11.32;6.90;;;;;;;;;;5072839;28;20489;-62
2023/01/04 02:16:11;;;;;;;11.05;7.43;;;;;;;;;;5072770;28;20375;-62
2023/01/04 02:18:46;;;;;;;12.18;7.18;;;;;;;;;;5072833;28;20031;-63
2023/01/04 02:21:55;;;;;;;13.98;7.68;;;;;;;;;;5072646;28;20024;-62
2023/01/04 02:24:39;;;;;;;12.25;6.80;;;;;;;;;;5051205;28;20078;-63
2023/01/04 02:27:20;;;;;;;12.23;7.22;;;;;;;;;;5072689;28;20021;-62
2023/01/04 02:30:09;;;;;;;13.07;7.38;;;;;;;;;;5072505;28;20060;-63
2023/01/04 02:33:09;;;;;;;13.25;7.15;;;;;;;;;;5073284;28;20028;-62
2023/01/04 02:36:10;;;;;;;11.13;7.13;;;;;;;;;;5048709;28;20040;-62
2023/01/04 02:38:39;;;;;;;10.95;6.97;;;;;;;;;;5072496;28;20020;-62
2023/01/04 02:41:20;;;;;;;11.57;7.03;;;;;;;;;;5072337;28;20020;-63
2023/01/04 02:46:54;;;;;;;12.18;7.35;;;;;;;;;;5072850;28;20510;-63
2023/01/04 02:52:04;;;;;;;10.68;7.30;;;;;;;;;;5072777;28;20502;-63
2023/01/04 02:54:31;;;;;;;12.65;6.60;;;;;;;;;;5072259;28;20025;-63
2023/01/04 02:57:15;;;;;;;12.77;7.18;;;;;;;;;;5087861;28;20027;-63
2023/01/04 03:00:02;;;;;;;12.07;7.10;;;;;;;;;;5072285;28;20016;-63
2023/01/04 03:08:21;;;;;;;13.25;7.75;;;;;;;;;;5072333;28;20464;-63
2023/01/04 03:11:01;;;;;;;12.55;7.43;;;;;;;;;;5072246;28;20028;-63
2023/01/04 03:14:06;;;;;;;10.77;6.68;;;;;;;;;;5072111;28;20028;-63
2023/01/04 03:16:35;;;;;;;11.55;7.15;;;;;;;;;;5072217;28;20035;-62
2023/01/04 03:19:08;;;;;;;10.02;6.95;;;;;;;;;;5071974;28;20028;-63
2023/01/04 03:21:36;;;;;;;10.70;6.95;;;;;;;;;;5072472;28;20053;-63
2023/01/04 03:35:51;;;;;;;10.50;7.03;;;;;;;;;;5076025;28;20032;-62
2023/01/04 03:49:58;;;;;;;12.93;7.60;;;;;;;;;;5076546;28;20082;-63
2023/01/04 03:52:27;;;;;;;11.02;6.70;;;;;;;;;;5075475;28;20029;-63
2023/01/04 03:54:55;;;;;;;11.15;7.03;;;;;;;;;;5075366;28;20027;-62
2023/01/04 03:57:22;;;;;;;9.00;6.47;;;;;;;;;;5075752;28;20039;-63
2023/01/04 03:59:52;;;;;;;12.93;6.93;;;;;;;;;;5075448;28;20082;-63
2023/01/04 04:02:23;;;;;;;10.10;6.63;;;;;;;;;;5075377;28;20021;-63
2023/01/04 04:10:16;;;;;;;11.02;7.15;;;;;;;;;;5075513;28;20086;-63
2023/01/04 04:12:42;;;;;;;12.77;6.72;;;;;;;;;;5075285;28;20024;-63
2023/01/04 04:15:08;;;;;;;11.60;6.53;;;;;;;;;;5074965;28;20111;-63
2023/01/04 04:17:33;;;;;;;10.77;7.05;;;;;;;;;;5075326;28;20109;-62
2023/01/04 04:19:59;;;;;;;12.23;7.05;;;;;;;;;;5075303;28;20124;-63
2023/01/04 04:22:24;;;;;;;10.82;7.05;;;;;;;;;;5075011;28;20048;-62
2023/01/04 04:24:50;;;;;;;10.43;6.95;;;;;;;;;;5074873;28;20119;-63
2023/01/04 04:27:15;;;;;;;11.20;7.35;;;;;;;;;;5075168;28;20115;-63
2023/01/04 04:29:41;;;;;;;11.18;6.93;;;;;;;;;;5074731;28;20074;-63
2023/01/04 04:32:06;;;;;;;10.55;6.40;;;;;;;;;;5074835;28;20040;-63
2023/01/04 04:34:32;;;;;;;9.23;6.32;;;;;;;;;;5074708;28;20032;-63
2023/01/04 04:36:57;;;;;;;12.57;6.80;;;;;;;;;;5073542;28;20036;-63
2023/01/04 04:39:23;;;;;;;10.15;6.55;;;;;;;;;;5074896;28;20468;-63
2023/01/04 04:41:48;;;;;;;10.57;6.70;;;;;;;;;;5074556;28;20127;-63
2023/01/04 04:44:17;;;;;;;10.85;6.82;;;;;;;;;;5074707;28;20103;-63
2023/01/04 04:46:43;;;;;;;11.93;7.15;;;;;;;;;;5074615;28;20077;-63
2023/01/04 04:49:09;;;;;;;10.05;6.50;;;;;;;;;;5074512;28;20028;-63
2023/01/04 04:51:35;;;;;;;11.15;6.47;;;;;;;;;;5074386;28;20472;-63
2023/01/04 04:54:03;;;;;;;11.20;6.75;;;;;;;;;;5074347;28;20028;-63
2023/01/04 04:56:28;;;;;;;10.00;6.55;;;;;;;;;;5074601;28;20468;-63
2023/01/04 04:58:54;;;;;;;9.30;6.63;;;;;;;;;;5074549;28;20028;-63
2023/01/04 05:01:20;;;;;;;8.82;6.47;;;;;;;;;;5074273;28;20078;-64
2023/01/04 05:03:46;;;;;;;9.57;6.13;;;;;;;;;;5074175;28;20047;-65
2023/01/04 05:06:12;;;;;;;10.45;6.07;;;;;;;;;;5074135;28;20025;-62
2023/01/04 05:08:37;;;;;;;10.90;6.45;;;;;;;;;;5074187;28;20028;-62
2023/01/04 05:11:08;;;;;;;9.90;6.13;;;;;;;;;;5074268;28;20074;-65
2023/01/04 05:13:34;;;;;;;11.63;6.55;;;;;;;;;;5074114;28;20281;-62
2023/01/04 05:16:01;;;;;;;9.63;6.28;;;;;;;;;;5073877;28;20267;-62
2023/01/04 05:18:26;;;;;;;12.00;6.80;;;;;;;;;;5073851;28;20487;-64
2023/01/04 05:20:52;;;;;;;10.40;6.20;;;;;;;;;;5073923;28;20020;-65
2023/01/04 05:23:20;;;;;;;10.13;6.35;;;;;;;;;;5074054;28;20115;-62
2023/01/04 05:25:51;;;;;;;9.77;6.32;;;;;;;;;;5089193;28;20086;-62
2023/01/04 05:28:17;;;;;;;9.40;6.22;;;;;;;;;;5073710;28;20034;-65
2023/01/04 05:30:52;;;;;;;9.30;6.20;;;;;;;;;;5073680;28;20112;-63
2023/01/04 05:33:28;;;;;;;9.75;6.25;;;;;;;;;;5073584;28;20024;-63
2023/01/04 05:35:55;;;;;;;9.93;6.43;;;;;;;;;;5073797;28;20039;-62
2023/01/04 05:38:21;;;;;;;10.45;6.75;;;;;;;;;;5073510;28;20090;-62
2023/01/04 05:40:47;;;;;;;10.05;6.40;;;;;;;;;;5073333;28;20024;-63
2023/01/04 05:43:13;;;;;;;8.35;6.25;;;;;;;;;;5073258;28;20047;-64
2023/01/04 05:45:40;;;;;;;9.80;6.22;;;;;;;;;;5073448;28;20141;-62
2023/01/04 05:48:06;;;;;;;10.23;6.03;;;;;;;;;;5072759;28;20062;-64
2023/01/04 05:50:31;;;;;;;10.98;6.18;;;;;;;;;;5073306;28;20063;-62
2023/01/04 05:52:57;;;;;;;8.90;6.28;;;;;;;;;;5073127;28;20103;-64
2023/01/04 05:55:23;;;;;;;9.32;6.40;;;;;;;;;;5073080;28;20028;-62
2023/01/04 05:57:50;;;;;;;9.27;6.60;;;;;;;;;;5073320;28;20479;-62
2023/01/04 06:00:15;;;;;;;10.18;6.75;;;;;;;;;;5073075;28;20491;-64
2023/01/04 06:02:42;;;;;;;9.93;6.65;;;;;;;;;;5072949;28;20032;-62
2023/01/04 06:05:09;;;;;;;8.80;6.32;;;;;;;;;;5072938;28;20027;-64
2023/01/04 06:07:35;;;;;;;10.13;6.55;;;;;;;;;;5072767;28;20082;-65
2023/01/04 06:10:01;;;;;;;11.07;6.57;;;;;;;;;;5072861;28;20028;-62
2023/01/04 06:12:26;;;;;;;11.48;7.35;;;;;;;;;;5072817;28;20419;-62
2023/01/04 06:14:52;;;;;;;12.10;6.70;;;;;;;;;;5072817;28;20024;-63
2023/01/04 06:17:18;;;;;;;10.20;6.70;;;;;;;;;;5072911;28;20103;-64
2023/01/04 06:19:44;;;;;;;8.60;6.43;;;;;;;;;;5072796;28;20471;-64
2023/01/04 06:22:10;;;;;;;8.98;6.20;;;;;;;;;;5072654;28;20104;-64
2023/01/04 06:24:35;;;;;;;10.85;7.13;;;;;;;;;;5073045;28;20033;-64
2023/01/04 06:27:01;;;;;;;9.45;6.65;;;;;;;;;;5072564;28;20433;-64
2023/01/04 06:29:27;;;;;;;9.43;6.10;;;;;;;;;;5072910;28;20021;-64
2023/01/04 06:31:53;;;;;;;9.40;6.22;;;;;;;;;;5072487;28;20016;-64
2023/01/04 06:34:18;;;;;;;9.50;6.10;;;;;;;;;;5072449;28;20068;-64
2023/01/04 06:36:44;;;;;;;10.70;6.78;;;;;;;;;;5072360;28;20060;-64
2023/01/04 06:39:09;;;;;;;11.63;6.80;;;;;;;;;;5072474;28;20024;-64
2023/01/04 06:41:35;;;;;;;9.50;6.45;;;;;;;;;;5072226;28;20048;-64
2023/01/04 06:44:01;;;;;;;9.68;6.40;;;;;;;;;;5072479;28;20380;-64
2023/01/04 06:46:27;;;;;;;9.48;6.93;;;;;;;;;;5072393;28;20047;-65
2023/01/04 06:48:52;;;;;;;8.57;6.30;;;;;;;;;;5072428;28;20024;-64
2023/01/04 06:51:21;;;;;;;10.40;6.72;;;;;;;;;;5072193;28;20056;-64
2023/01/04 06:53:47;;;;;;;9.00;6.05;;;;;;;;;;5072250;28;20029;-64
2023/01/04 06:56:15;;;;;;;7.93;6.30;;;;;;;;;;5072244;28;20479;-64
2023/01/04 06:58:40;;;;;;;9.85;7.18;;;;;;;;;;5072348;28;20024;-64
2023/01/04 07:01:06;;;;;;;11.02;6.60;;;;;;;;;;5087338;28;20063;-64
2023/01/04 07:03:31;;;;;;;9.05;6.57;;;;;;;;;;5072325;28;20047;-64
2023/01/04 07:05:57;;;;;;;9.75;6.60;;;;;;;;;;5072071;28;20056;-65
2023/01/04 07:08:24;;;;;;;9.48;6.03;;;;;;;;;;5072503;28;20031;-64
2023/01/04 07:10:49;;;;;;;9.38;6.45;;;;;;;;;;5072175;28;20078;-64
2023/01/04 07:13:15;;;;;;;9.68;6.38;;;;;;;;;;5072091;28;20020;-65
2023/01/04 07:15:41;;;;;;;8.77;6.20;;;;;;;;;;5072047;28;20471;-65
2023/01/04 07:18:08;;;;;;;8.45;6.28;;;;;;;;;;5072191;28;20115;-65
2023/01/04 07:20:35;;;;;;;8.63;6.60;;;;;;;;;;5054241;28;20032;-65
2023/01/04 07:23:00;;;;;;;9.23;6.40;;;;;;;;;;5072824;28;20032;-65
2023/01/04 07:25:26;;;;;;;8.90;6.63;;;;;;;;;;5071878;28;20483;-65
2023/01/04 07:27:52;;;;;;;9.32;6.75;;;;;;;;;;5053962;28;20469;-65
2023/01/04 07:30:19;;;;;;;8.60;6.22;;;;;;;;;;5071988;28;20036;-65
2023/01/04 07:32:44;;;;;;;7.28;5.95;;;;;;;;;;5072295;28;20104;-65
2023/01/04 07:35:10;;;;;;;9.10;5.97;;;;;;;;;;5072100;28;20174;-65
2023/01/04 07:37:35;;;;;;;11.18;6.82;;;;;;;;;;5071927;28;20025;-65
2023/01/04 07:40:01;;;;;;;10.00;6.53;;;;;;;;;;5071735;28;20589;-66
2023/01/04 07:42:26;;;;;;;8.50;6.53;;;;;;;;;;5071577;28;20043;-65
2023/01/04 07:44:52;;;;;;;10.15;6.40;;;;;;;;;;5071680;28;20031;-65
2023/01/04 07:47:17;;;;;;;9.40;6.20;;;;;;;;;;5071769;28;20039;-65
2023/01/04 07:49:43;;;;;;;8.60;6.55;;;;;;;;;;5071712;28;20036;-65
2023/01/04 07:52:09;;;;;;;7.82;6.28;;;;;;;;;;5071945;28;20017;-66
2023/01/04 07:54:35;;;;;;;9.20;6.00;;;;;;;;;;5069693;28;20036;-67
2023/01/04 07:57:01;;;;;;;9.15;6.53;;;;;;;;;;5065412;28;20801;-67
2023/01/04 07:59:26;;;;;;;8.85;6.63;;;;;;;;;;5067738;28;20055;-66
2023/01/04 08:01:52;;;;;;;9.52;6.68;;;;;;;;;;5052100;28;20036;-66
2023/01/04 08:04:21;;;;;;;8.65;6.00;;;;;;;;;;5067706;28;20044;-66
2023/01/04 08:06:47;;;;;;;9.68;6.18;;;;;;;;;;5068862;28;20024;-66
2023/01/04 08:09:13;;;;;;;9.32;6.85;;;;;;;;;;5070304;28;20106;-67
2023/01/04 08:11:39;;;;;;;11.07;6.47;;;;;;;;;;5072560;28;20472;-65
2023/01/04 08:14:05;;;;;;;9.38;6.57;;;;;;;;;;5073029;28;20063;-66
2023/01/04 08:16:35;;;;;;;9.07;6.07;;;;;;;;;;5074822;28;20461;-66
2023/01/04 08:19:05;;;;;;;;;;;;;;;;;;5075435;28;20146;-65
2023/01/04 08:21:33;;;;;;;7.85;5.90;;;;;;;;;;5073476;28;19920;-66
2023/01/04 08:23:59;;;;;;;8.85;6.18;;;;;;;;;;5074059;28;20484;-66
2023/01/04 08:26:25;;;;;;;9.18;6.65;;;;;;;;;;5074987;28;20024;-65
2023/01/04 08:28:51;;;;;;;9.52;5.97;;;;;;;;;;5074270;28;20071;-66
2023/01/04 08:31:19;;;;;;;9.15;6.25;;;;;;;;;;5074510;28;20492;-66
2023/01/04 08:33:45;;;;;;;9.60;6.28;;;;;;;;;;5074003;28;20021;-66
2023/01/04 08:36:20;;;;;;;9.07;6.45;;;;;;;;;;5074584;28;20036;-66
2023/01/04 08:38:48;;;;;;;9.32;6.53;;;;;;;;;;5074618;28;20029;-65
2023/01/04 08:41:14;;;;;;;9.02;5.85;;;;;;;;;;5074626;28;20029;-65
2023/01/04 08:43:40;;;;;;;10.18;6.15;;;;;;;;;;5074612;28;20039;-65
2023/01/04 08:46:06;;;;;;;7.70;5.85;;;;;;;;;;5074588;28;20041;-65
2023/01/04 08:48:32;;;;;;;8.63;5.93;;;;;;;;;;5074408;28;20031;-66
2023/01/04 08:51:03;;;;;;;9.57;6.45;;;;;;;;;;5074281;28;20547;-66
2023/01/04 08:53:28;;;;;;;;;;;;;;;;;;5074781;28;20060;-66
2023/01/04 08:55:55;;;;;;;7.80;6.18;;;;;;;;;;5074418;28;19955;-65
2023/01/04 08:58:21;;;;;;;10.52;6.05;;;;;;;;;;5074589;28;20032;-65
2023/01/04 09:00:48;;;;;;;9.32;5.80;;;;;;;;;;5074127;28;20055;-66
2023/01/04 09:03:13;;;;;;;9.52;6.53;;;;;;;;;;5074178;28;20107;-65
2023/01/04 09:05:39;;;;;;;9.50;6.65;;;;;;;;;;5074139;28;20029;-65
2023/01/04 09:08:05;;;;;;;8.68;6.20;;;;;;;;;;5074111;28;20157;-67
2023/01/04 09:10:31;;;;;;;13.77;10.30;;;;;;;;;;5074160;28;20068;-67
2023/01/04 09:12:57;;;;;;;13.80;9.32;;;;;;;;;;5074047;28;20048;-65
2023/01/04 09:15:22;;;;;;;12.95;9.40;;;;;;;;;;5073202;28;20734;-65
2023/01/04 09:17:49;;;;;;;15.73;9.15;;;;;;;;;;5072083;28;20032;-65
2023/01/04 09:20:15;;;;;;;12.85;9.07;;;;;;;;;;5073714;28;20036;-64
2023/01/04 09:22:40;;;;;;;11.90;8.73;;;;;;;;;;5072900;28;20025;-65
2023/01/04 09:25:06;;;;;;;11.95;9.00;;;;;;;;;;5072781;28;20081;-65
2023/01/04 09:27:35;;;;;;;11.20;7.65;;;;;;;;;;5073474;28;20059;-65
2023/01/04 09:30:01;;;;;;;10.75;7.82;;;;;;;;;;5073669;28;20024;-65
2023/01/04 09:32:26;;;;;;;10.68;7.45;;;;;;;;;;5073685;28;20032;-65
2023/01/04 09:34:52;;;;;;;9.93;7.03;;;;;;;;;;5073328;28;20121;-65
2023/01/04 09:37:18;;;;;;;9.95;6.90;;;;;;;;;;5073547;28;20034;-65
2023/01/04 09:39:44;;;;;;;9.90;7.05;;;;;;;;;;5073593;28;20032;-65
2023/01/04 09:42:29;;;;;;;9.75;7.07;;;;;;;;;;5073330;28;20510;-65
2023/01/04 09:45:01;;;;;;;9.90;6.95;;;;;;;;;;5073304;28;20020;-64
2023/01/04 09:47:29;;;;;;;9.90;7.15;;;;;;;;;;5073293;28;20020;-64
2023/01/04 09:50:01;;;;;;;8.65;6.80;;;;;;;;;;5073458;28;20021;-64
2023/01/04 09:52:41;;;;;;;9.48;6.85;;;;;;;;;;5073173;28;20495;-64
2023/01/04 09:55:15;;;;;;;10.77;6.53;;;;;;;;;;5073423;28;20482;-64
2023/01/04 09:57:49;;;;;;;8.85;6.28;;;;;;;;;;5072730;28;20087;-64
2023/01/04 10:00:23;;;;;;;9.90;6.82;;;;;;;;;;5072757;28;20495;-64
2023/01/04 10:02:55;;;;;;;10.05;7.03;;;;;;;;;;5073123;28;20376;-64
2023/01/04 10:05:25;;;;;;;9.40;7.20;;;;;;;;;;5072930;28;20036;-64
2023/01/04 10:07:50;;;;;;;8.38;6.55;;;;;;;;;;5055064;28;20086;-64
2023/01/04 10:10:23;;;;;;;9.30;6.60;;;;;;;;;;5073018;28;20029;-64
2023/01/04 10:13:10;;;;;;;8.07;6.40;;;;;;;;;;5072715;28;20082;-64
2023/01/04 10:15:51;;;;;;;9.43;6.38;;;;;;;;;;5072698;28;20036;-64
2023/01/04 10:18:32;;;;;;;9.25;6.57;;;;;;;;;;5054711;28;20032;-64
2023/01/04 10:21:15;;;;;;;10.10;6.93;;;;;;;;;;5072739;28;20023;-64
2023/01/04 10:24:23;;;;;;;9.85;6.80;;;;;;;;;;5072666;28;20043;-64
2023/01/04 10:26:54;;;;;;;7.75;6.18;;;;;;;;;;5072657;28;20042;-63
2023/01/04 10:29:25;;;;;;;8.48;6.30;;;;;;;;;;5072553;28;20021;-64
2023/01/04 10:32:02;;;;;;;8.52;6.32;;;;;;;;;;5072668;28;20101;-64
2023/01/04 10:34:42;;;;;;;8.55;6.78;;;;;;;;;;5071501;28;20032;-64
2023/01/04 10:37:21;;;;;;;8.07;6.35;;;;;;;;;;5072514;28;20028;-63
2023/01/04 10:39:55;;;;;;;8.90;6.68;;;;;;;;;;5054530;28;20024;-63
2023/01/04 10:42:29;;;;;;;8.52;6.25;;;;;;;;;;5072357;28;20044;-64
2023/01/04 10:45:07;;;;;;;9.15;6.57;;;;;;;;;;5072483;28;20392;-63
2023/01/04 10:47:54;;;;;;;9.02;6.30;;;;;;;;;;5072249;28;20497;-63
2023/01/04 10:50:37;;;;;;;8.57;6.15;;;;;;;;;;5072402;28;20036;-63
2023/01/04 10:53:12;;;;;;;7.75;5.78;;;;;;;;;;5072123;28;20031;-63
2023/01/04 10:55:53;;;;;;;9.98;6.00;;;;;;;;;;5072264;28;20024;-63
2023/01/04 10:58:40;;;;;;;9.38;6.00;;;;;;;;;;5072273;28;20424;-63
2023/01/04 11:01:12;;;;;;;7.85;6.50;;;;;;;;;;5072128;28;20610;-63
2023/01/04 11:04:02;;;;;;;8.63;6.15;;;;;;;;;;5054215;28;20028;-63
2023/01/04 11:06:34;;;;;;;6.97;5.80;;;;;;;;;;5072186;28;20035;-63
2023/01/04 11:09:03;;;;;;;8.50;6.10;;;;;;;;;;5072118;28;20036;-63
2023/01/04 11:11:39;;;;;;;9.73;6.05;;;;;;;;;;5072165;28;20024;-63
2023/01/04 11:14:05;;;;;;;8.07;5.53;;;;;;;;;;5072412;28;20036;-63
2023/01/04 11:16:31;;;;;;;8.18;6.00;;;;;;;;;;5072240;28;20036;-63
2023/01/04 11:18:57;;;;;;;7.40;5.57;;;;;;;;;;5072081;28;20419;-63
2023/01/04 11:21:27;;;;;;;9.05;6.05;;;;;;;;;;5072067;28;20020;-63
2023/01/04 11:23:58;;;;;;;8.05;6.22;;;;;;;;;;5072297;28;20036;-63
2023/01/04 11:26:30;;;;;;;8.40;6.13;;;;;;;;;;5054115;28;20060;-63
2023/01/04 11:29:05;;;;;;;8.75;6.50;;;;;;;;;;5071809;28;20028;-63
2023/01/04 11:31:48;;;;;;;8.98;6.43;;;;;;;;;;5072205;28;20082;-63
2023/01/04 11:34:13;;;;;;;7.70;6.20;;;;;;;;;;5072209;28;20545;-63
2023/01/04 11:36:42;;;;;;;8.30;5.95;;;;;;;;;;5071733;28;20060;-63
2023/01/04 11:39:26;;;;;;;8.23;6.18;;;;;;;;;;5071776;28;20021;-63
2023/01/04 11:42:03;;;;;;;10.60;6.18;;;;;;;;;;5071602;28;20070;-63
2023/01/04 11:44:33;;;;;;;7.95;6.05;;;;;;;;;;5071765;28;20033;-63
2023/01/04 11:47:20;;;;;;;7.28;5.80;;;;;;;;;;5074756;28;20052;-63
2023/01/04 11:49:47;;;;;;;8.73;5.95;;;;;;;;;;5075512;28;20032;-63
2023/01/04 11:52:31;;;;;;;8.70;5.93;;;;;;;;;;5075762;28;20421;-63
2023/01/04 11:55:29;;;;;;;8.00;5.60;;;;;;;;;;5075405;28;20029;-62
2023/01/04 11:58:12;;;;;;;7.40;5.68;;;;;;;;;;5057461;28;20082;-63
2023/01/04 12:00:56;;;;;;;7.53;5.55;;;;;;;;;;5075560;28;20078;-63
2023/01/04 12:03:27;;;;;;;7.18;5.70;;;;;;;;;;5073012;28;20052;-64
2023/01/04 12:05:53;;;;;;;7.88;5.63;;;;;;;;;;5053849;28;20754;-64
2023/01/04 12:08:30;;;;;;;7.88;5.55;;;;;;;;;;5071302;28;20103;-64
2023/01/04 12:10:57;;;;;;;8.70;6.20;;;;;;;;;;5069582;28;20148;-64
2023/01/04 12:13:23;;;;;;;7.13;5.82;;;;;;;;;;5071995;28;20095;-64
2023/01/04 12:16:17;;;;;;;7.20;6.05;;;;;;;;;;5072732;28;20119;-63
2023/01/04 12:18:44;;;;;;;7.32;5.80;;;;;;;;;;5072763;28;20162;-63
2023/01/04 12:21:20;;;;;;;6.85;5.55;;;;;;;;;;5073294;28;20506;-63
2023/01/04 12:23:46;;;;;;;6.55;5.25;;;;;;;;;;5072142;28;20061;-64
2023/01/04 12:26:13;;;;;;;8.27;5.53;;;;;;;;;;5073230;28;20543;-63
2023/01/04 12:28:43;;;;;;;6.97;5.60;;;;;;;;;;5072760;28;20028;-63
2023/01/04 12:31:20;;;;;;;8.23;6.20;;;;;;;;;;5073126;28;20422;-63
2023/01/04 12:33:51;;;;;;;6.80;5.10;;;;;;;;;;5073083;28;20028;-63
2023/01/04 12:36:36;;;;;;;7.32;5.93;;;;;;;;;;5072723;28;20422;-63
2023/01/04 12:39:12;;;;;;;6.95;5.38;;;;;;;;;;5062128;28;20094;-63
2023/01/04 12:41:37;;;;;;;9.27;5.97;;;;;;;;;;5071161;28;20058;-63
2023/01/04 12:44:35;;;;;;;9.88;5.90;;;;;;;;;;5073273;28;20028;-64
2023/01/04 12:50:01;;;;;;;7.35;5.72;;;;;;;;;;5072268;28;20111;-64
2023/01/04 12:52:27;;;;;;;6.63;5.20;;;;;;;;;;5069637;28;20021;-64
2023/01/04 12:54:56;;;;;;;15.10;8.13;;;;;;;;;;5071834;28;20025;-63
2023/01/04 12:57:35;;;;;;;7.60;5.63;;;;;;;;;;5052355;28;20036;-63
2023/01/04 13:00:06;;;;;;;7.88;5.78;;;;;;;;;;5053001;28;20020;-63
2023/01/04 13:02:46;;;;;;;10.00;6.28;;;;;;;;;;5053918;28;20082;-65
2023/01/04 13:05:18;;;;;;;11.02;6.60;;;;;;;;;;5072198;28;20549;-64
2023/01/04 13:07:45;;;;;;;25.30;6.63;;;;;;;;;;5071667;28;20078;-63
2023/01/04 13:10:19;;;;;;;17.17;6.40;;;;;;;;;;5053237;28;20028;-63
2023/01/04 13:13:11;;;;;;;8.52;5.70;;;;;;;;;;5069416;28;20033;-63
2023/01/04 13:15:47;;;;;;;13.95;6.60;;;;;;;;;;5072068;28;20032;-64
2023/01/04 13:18:35;;;;;;;9.80;6.43;;;;;;;;;;5072060;28;20016;-62
2023/01/04 13:21:23;;;;;;;10.55;5.38;;;;;;;;;;5071374;28;20037;-63
2023/01/04 13:23:57;;;;;;;12.27;6.25;;;;;;;;;;5057692;28;20033;-63
2023/01/04 13:26:30;;;;;;;16.80;6.18;;;;;;;;;;5071526;28;20032;-64
2023/01/04 13:29:27;;;;;;;19.73;6.38;;;;;;;;;;5070635;28;20143;-63
2023/01/04 13:32:04;;;;;;;16.30;6.30;;;;;;;;;;5068407;28;20067;-62
2023/01/04 13:34:35;;;;;;;10.20;6.30;;;;;;;;;;5071058;28;20024;-63
2023/01/04 13:37:17;;;;;;;15.50;6.45;;;;;;;;;;5052925;28;20032;-63
2023/01/04 13:39:49;;;;;;;13.50;6.30;;;;;;;;;;5070832;28;20395;-62
2023/01/04 13:42:20;;;;;;;13.45;6.45;;;;;;;;;;5070690;28;20403;-63
2023/01/04 13:45:08;;;;;;;14.07;6.30;;;;;;;;;;5070755;28;20111;-62
2023/01/04 13:47:36;;;;;;;18.92;6.22;;;;;;;;;;5070841;28;20017;-62
2023/01/04 13:50:03;;;;;;;15.00;6.60;;;;;;;;;;5070768;28;20488;-62
2023/01/04 13:52:29;;;;;;;13.40;6.78;;;;;;;;;;5070601;28;20024;-62
2023/01/04 13:55:19;;;;;;;13.07;6.97;;;;;;;;;;5070673;28;20043;-63
2023/01/04 13:57:56;;;;;;;15.65;6.40;;;;;;;;;;5070924;28;20040;-63
2023/01/04 14:00:24;;;;;;;16.55;6.68;;;;;;;;;;5070695;28;20070;-62
2023/01/04 14:03:11;;;;;;;14.02;5.97;;;;;;;;;;5053138;28;20039;-62
2023/01/04 14:05:37;;;;;;;12.98;6.55;;;;;;;;;;5070415;28;20031;-62
2023/01/04 14:08:10;;;;;;;13.90;6.60;;;;;;;;;;5070450;28;20040;-62
2023/01/04 14:10:41;;;;;;;17.48;7.13;;;;;;;;;;5070333;28;20032;-62
2023/01/04 14:13:08;;;;;;;13.95;6.70;;;;;;;;;;5070183;28;20023;-63
2023/01/04 14:15:34;;;;;;;21.40;7.28;;;;;;;;;;5070087;28;20066;-62
2023/01/04 14:18:00;;;;;;;11.73;6.95;;;;;;;;;;5070291;28;20060;-62
2023/01/04 14:20:25;;;;;;;12.48;7.10;;;;;;;;;;5070151;28;20036;-62
2023/01/04 14:22:52;;;;;;;16.23;7.25;;;;;;;;;;5070241;28;20089;-62
2023/01/04 14:25:32;;;;;;;12.73;7.03;;;;;;;;;;5068187;28;20024;-63
2023/01/04 14:28:27;;;;;;;17.67;7.72;;;;;;;;;;5067447;28;20040;-62
2023/01/04 14:30:58;;;;;;;17.58;7.40;;;;;;;;;;5050403;28;20033;-61
2023/01/04 14:33:28;;;;;;;14.43;7.82;;;;;;;;;;5050013;28;20040;-63
2023/01/04 14:36:03;;;;;;;14.15;7.57;;;;;;;;;;5050064;28;20043;-63
2023/01/04 14:38:29;;;;;;;16.73;7.88;;;;;;;;;;5047382;28;20108;-64
2023/01/04 14:40:55;;;;;;;14.18;7.10;;;;;;;;;;5069302;28;20029;-64
2023/01/04 14:43:35;;;;;;;13.05;7.25;;;;;;;;;;5065161;28;20040;-63
2023/01/04 14:46:02;;;;;;;11.18;6.75;;;;;;;;;;5060093;28;20024;-61
2023/01/04 14:48:29;;;;;;;14.50;6.63;;;;;;;;;;5053153;28;20029;-62
2023/01/04 14:50:55;;;;;;;16.33;7.75;;;;;;;;;;5050716;28;20028;-62
2023/01/04 14:53:20;;;;;;;13.60;6.68;;;;;;;;;;5054016;28;20667;-62
2023/01/04 14:55:47;;;;;;;13.68;6.32;;;;;;;;;;5062435;28;20032;-63
2023/01/04 14:58:12;;;;;;;12.90;6.78;;;;;;;;;;5069222;28;20028;-61
2023/01/04 15:00:38;;;;;;;15.23;6.85;;;;;;;;;;5069406;28;20043;-62
2023/01/04 15:03:04;;;;;;;12.07;6.57;;;;;;;;;;5069553;28;20027;-61
2023/01/04 15:05:30;;;;;;;11.95;6.72;;;;;;;;;;5070595;28;20033;-62
2023/01/04 15:07:56;;;;;;;13.63;7.30;;;;;;;;;;5070511;28;20036;-62
2023/01/04 15:10:25;;;;;;;11.77;6.68;;;;;;;;;;5070667;28;20028;-62
2023/01/04 15:12:50;;;;;;;12.50;6.45;;;;;;;;;;5070730;28;20044;-62
2023/01/04 15:15:16;;;;;;;14.18;7.40;;;;;;;;;;5052609;28;20815;-62
2023/01/04 15:17:42;;;;;;;10.60;6.57;;;;;;;;;;5069934;28;20562;-62
2023/01/04 15:20:08;;;;;;;13.50;6.63;;;;;;;;;;5069696;28;20033;-63
2023/01/04 15:22:34;;;;;;;10.45;6.53;;;;;;;;;;5074397;28;20094;-63
2023/01/04 15:24:59;;;;;;;10.88;6.80;;;;;;;;;;5074334;28;20024;-64
2023/01/04 15:27:25;;;;;;;12.95;6.60;;;;;;;;;;5052450;28;20033;-62
2023/01/04 15:29:50;;;;;;;13.68;6.97;;;;;;;;;;5071323;28;20036;-63
2023/01/04 15:32:16;;;;;;;10.73;6.60;;;;;;;;;;5074097;28;20121;-63
2023/01/04 15:34:41;;;;;;;11.43;6.65;;;;;;;;;;5074312;28;20024;-63
2023/01/04 15:37:07;;;;;;;10.65;6.72;;;;;;;;;;5071856;28;20043;-62